Time,TemperatureF,DewpointF,PressureIn,WindDirection,WindDirectionDegrees,WindSpeedMPH,WindSpeedGustMPH,Humidity,HourlyPrecipIn,Conditions,Clouds,dailyrainin,SoftwareType,DateUTC
2013-04-21 00:01:00,53.0,30.0,30.05,WNW,297,3.0,-999.0,41,-99.99,,,-99.99,,2013-04-21 00:01:00,
2013-04-21 00:12:00,53.0,30.0,30.05,WNW,297,3.0,-999.0,41,-99.99,,,-99.99,,2013-04-21 00:12:00,
2013-04-21 00:22:00,53.0,29.0,30.06,West,266,3.0,-999.0,40,-99.99,,,-99.99,,2013-04-21 00:22:00,
2013-04-21 00:32:00,52.0,29.0,30.07,NW,311,2.0,-999.0,41,-99.99,,,-99.99,,2013-04-21 00:32:00,
2013-04-21 00:42:00,52.0,29.0,30.07,NW,311,2.0,-999.0,41,-99.99,,,-99.99,,2013-04-21 00:42:00,
2013-04-21 00:52:00,52.0,29.0,30.09,WNW,294,3.0,-999.0,41,-99.99,,,-99.99,,2013-04-21 00:52:00,
2013-04-21 01:01:00,51.0,29.0,30.10,NW,321,2.0,-999.0,42,-99.99,,,-99.99,,2013-04-21 01:01:00,
2013-04-21 01:12:00,51.0,29.0,30.10,NW,321,2.0,-999.0,42,-99.99,,,-99.99,,2013-04-21 01:12:00,
2013-04-21 01:21:00,51.0,29.0,30.11,WNW,286,1.0,-999.0,43,-99.99,,,-99.99,,2013-04-21 01:21:00,
2013-04-21 01:32:00,51.0,30.0,30.13,WSW,248,1.0,-999.0,44,-99.99,,,-99.99,,2013-04-21 01:32:00,
2013-04-21 01:42:00,51.0,30.0,30.13,WSW,248,1.0,-999.0,44,-99.99,,,-99.99,,2013-04-21 01:42:00,
2013-04-21 01:52:00,51.0,30.0,30.14,NW,311,2.0,-999.0,44,-99.99,,,-99.99,,2013-04-21 01:52:00,
2013-04-21 02:02:00,50.0,29.0,30.15,WNW,288,1.0,-999.0,45,-99.99,,,-99.99,,2013-04-21 02:02:00,
2013-04-21 02:11:00,50.0,29.0,30.15,WNW,288,1.0,-999.0,45,-99.99,,,-99.99,,2013-04-21 02:11:00,
2013-04-21 02:22:00,50.0,30.0,30.16,WNW,294,1.0,-999.0,46,-99.99,,,-99.99,,2013-04-21 02:22:00,
2013-04-21 02:32:00,49.0,29.0,30.16,WNW,298,1.0,-999.0,46,-99.99,,,-99.99,,2013-04-21 02:32:00,
2013-04-21 02:42:00,49.0,29.0,30.16,WNW,298,1.0,-999.0,46,-99.99,,,-99.99,,2013-04-21 02:42:00,
2013-04-21 02:52:00,49.0,29.0,30.16,WNW,296,3.0,-999.0,46,-99.99,,,-99.99,,2013-04-21 02:52:00,
2013-04-21 03:01:00,49.0,29.0,30.17,NW,311,2.0,-999.0,46,-99.99,,,-99.99,,2013-04-21 03:01:00,
2013-04-21 03:11:00,49.0,29.0,30.17,NW,311,2.0,-999.0,46,-99.99,,,-99.99,,2013-04-21 03:11:00,
2013-04-21 03:22:00,48.0,28.0,30.18,WNW,302,3.0,-999.0,46,-99.99,,,-99.99,,2013-04-21 03:22:00,
2013-04-21 03:33:00,48.0,29.0,30.18,NNW,327,1.0,-999.0,47,-99.99,,,-99.99,,2013-04-21 03:33:00,
2013-04-21 03:42:00,48.0,29.0,30.18,NNW,327,1.0,-999.0,47,-99.99,,,-99.99,,2013-04-21 03:42:00,
2013-04-21 03:52:00,47.0,28.0,30.19,WNW,297,1.0,-999.0,48,-99.99,,,-99.99,,2013-04-21 03:52:00,
2013-04-21 04:03:00,47.0,29.0,30.20,WNW,301,1.0,-999.0,49,-99.99,,,-99.99,,2013-04-21 04:03:00,
2013-04-21 04:12:00,47.0,29.0,30.21,NNW,330,1.0,-999.0,50,-99.99,,,-99.99,,2013-04-21 04:12:00,
2013-04-21 04:23:00,47.0,29.0,30.21,NNW,330,1.0,-999.0,50,-99.99,,,-99.99,,2013-04-21 04:23:00,
2013-04-21 04:33:00,46.0,29.0,30.21,NNW,342,2.0,-999.0,51,-99.99,,,-99.99,,2013-04-21 04:33:00,
2013-04-21 04:42:00,46.0,29.0,30.21,NNW,342,2.0,-999.0,51,-99.99,,,-99.99,,2013-04-21 04:42:00,
2013-04-21 04:53:00,46.0,29.0,30.21,NW,321,1.0,-999.0,52,-99.99,,,-99.99,,2013-04-21 04:53:00,
2013-04-21 05:02:00,46.0,29.0,30.21,NNW,333,2.0,-999.0,51,-99.99,,,-99.99,,2013-04-21 05:02:00,
2013-04-21 05:12:00,46.0,29.0,30.21,NNW,333,2.0,-999.0,51,-99.99,,,-99.99,,2013-04-21 05:12:00,
2013-04-21 05:22:00,45.0,28.0,30.22,NNW,339,3.0,-999.0,51,-99.99,,,-99.99,,2013-04-21 05:22:00,
2013-04-21 05:32:00,45.0,28.0,30.23,North,355,4.0,-999.0,52,-99.99,,,-99.99,,2013-04-21 05:32:00,
2013-04-21 05:42:00,45.0,28.0,30.23,North,355,4.0,-999.0,52,-99.99,,,-99.99,,2013-04-21 05:42:00,
2013-04-21 05:52:00,44.0,26.0,30.23,NW,314,8.0,-999.0,48,-99.99,,,-99.99,,2013-04-21 05:52:00,
2013-04-21 06:01:00,44.0,26.0,30.24,NNE,19,8.0,-999.0,48,-99.99,,,-99.99,,2013-04-21 06:01:00,
2013-04-21 06:12:00,44.0,26.0,30.24,NNE,19,8.0,-999.0,48,-99.99,,,-99.99,,2013-04-21 06:12:00,
2013-04-21 06:22:00,43.0,25.0,30.26,NNE,13,6.0,-999.0,49,-99.99,,,-99.99,,2013-04-21 06:22:00,
2013-04-21 06:32:00,43.0,26.0,30.26,NW,307,4.0,-999.0,51,-99.99,,,-99.99,,2013-04-21 06:32:00,
2013-04-21 06:42:00,43.0,26.0,30.26,NW,307,4.0,-999.0,51,-99.99,,,-99.99,,2013-04-21 06:42:00,
2013-04-21 06:51:00,42.0,25.0,30.27,North,9,6.0,-999.0,50,-99.99,,,-99.99,,2013-04-21 06:51:00,
2013-04-21 07:02:00,42.0,25.0,30.27,North,9,6.0,-999.0,50,-99.99,,,-99.99,,2013-04-21 07:02:00,
2013-04-21 07:12:00,41.0,25.0,30.28,North,360,3.0,-999.0,52,-99.99,,,-99.99,,2013-04-21 07:12:00,
2013-04-21 07:22:00,41.0,25.0,30.28,North,360,3.0,-999.0,52,-99.99,,,-99.99,,2013-04-21 07:22:00,
2013-04-21 07:32:00,41.0,26.0,30.29,NNE,23,3.0,-999.0,54,-99.99,,,-99.99,,2013-04-21 07:32:00,
2013-04-21 07:42:00,41.0,26.0,30.29,NNE,23,3.0,-999.0,54,-99.99,,,-99.99,,2013-04-21 07:42:00,
2013-04-21 07:52:00,40.0,25.0,30.29,North,360,3.0,-999.0,54,-99.99,,,-99.99,,2013-04-21 07:52:00,
2013-04-21 08:01:00,40.0,25.0,30.30,NNW,338,2.0,-999.0,55,-99.99,,,-99.99,,2013-04-21 08:01:00,
2013-04-21 08:12:00,40.0,25.0,30.30,NNW,338,2.0,-999.0,55,-99.99,,,-99.99,,2013-04-21 08:12:00,
2013-04-21 08:21:00,39.0,25.0,30.30,NNE,19,1.0,-999.0,56,-99.99,,,-99.99,,2013-04-21 08:21:00,
2013-04-21 08:32:00,39.0,25.0,30.31,North,349,1.0,-999.0,57,-99.99,,,-99.99,,2013-04-21 08:32:00,
2013-04-21 08:42:00,39.0,25.0,30.31,North,349,1.0,-999.0,57,-99.99,,,-99.99,,2013-04-21 08:42:00,
2013-04-21 08:52:00,38.0,24.0,30.32,NNW,348,1.0,-999.0,57,-99.99,,,-99.99,,2013-04-21 08:52:00,
2013-04-21 09:02:00,38.0,25.0,30.33,North,349,0.0,-999.0,59,-99.99,,,-99.99,,2013-04-21 09:02:00,
2013-04-21 09:12:00,38.0,25.0,30.33,North,349,0.0,-999.0,59,-99.99,,,-99.99,,2013-04-21 09:12:00,
2013-04-21 09:21:00,37.0,24.0,30.33,North,349,0.0,-999.0,60,-99.99,,,-99.99,,2013-04-21 09:21:00,
2013-04-21 09:32:00,37.0,24.0,30.34,North,349,0.0,-999.0,60,-99.99,,,-99.99,,2013-04-21 09:32:00,
2013-04-21 09:43:00,37.0,24.0,30.34,North,349,0.0,-999.0,60,-99.99,,,-99.99,,2013-04-21 09:43:00,
2013-04-21 09:52:00,36.0,24.0,30.35,North,349,0.0,-999.0,62,-99.99,,,-99.99,,2013-04-21 09:52:00,
2013-04-21 10:03:00,36.0,24.0,30.35,North,350,1.0,-999.0,62,-99.99,,,-99.99,,2013-04-21 10:03:00,
2013-04-21 10:12:00,36.0,24.0,30.35,North,350,1.0,-999.0,62,-99.99,,,-99.99,,2013-04-21 10:12:00,
2013-04-21 10:22:00,36.0,24.0,30.36,North,350,0.0,-999.0,62,-99.99,,,-99.99,,2013-04-21 10:22:00,
2013-04-21 10:32:00,35.0,24.0,30.37,North,350,0.0,-999.0,63,-99.99,,,-99.99,,2013-04-21 10:32:00,
2013-04-21 10:42:00,35.0,24.0,30.37,North,350,0.0,-999.0,63,-99.99,,,-99.99,,2013-04-21 10:42:00,
2013-04-21 10:52:00,35.0,23.0,30.38,North,350,0.0,-999.0,62,-99.99,,,-99.99,,2013-04-21 10:52:00,
2013-04-21 11:03:00,35.0,24.0,30.39,North,350,1.0,-999.0,63,-99.99,,,-99.99,,2013-04-21 11:03:00,
2013-04-21 11:12:00,35.0,24.0,30.39,North,350,1.0,-999.0,63,-99.99,,,-99.99,,2013-04-21 11:12:00,
2013-04-21 11:22:00,36.0,24.0,30.40,North,355,1.0,-999.0,62,-99.99,,,-99.99,,2013-04-21 11:22:00,
2013-04-21 11:34:00,36.0,24.0,30.41,North,355,1.0,-999.0,61,-99.99,,,-99.99,,2013-04-21 11:34:00,
2013-04-21 11:42:00,36.0,24.0,30.41,North,355,1.0,-999.0,61,-99.99,,,-99.99,,2013-04-21 11:42:00,
2013-04-21 11:52:00,37.0,24.0,30.42,North,355,1.0,-999.0,60,-99.99,,,-99.99,,2013-04-21 11:52:00,
2013-04-21 12:03:00,38.0,25.0,30.42,North,360,2.0,-999.0,58,-99.99,,,-99.99,,2013-04-21 12:03:00,
2013-04-21 12:12:00,38.0,25.0,30.42,North,360,2.0,-999.0,58,-99.99,,,-99.99,,2013-04-21 12:12:00,
2013-04-21 12:22:00,38.0,24.0,30.44,NNW,342,2.0,-999.0,57,-99.99,,,-99.99,,2013-04-21 12:22:00,
2013-04-21 12:32:00,39.0,25.0,30.44,NE,49,3.0,-999.0,56,-99.99,,,-99.99,,2013-04-21 12:32:00,
2013-04-21 12:42:00,39.0,25.0,30.44,NE,49,3.0,-999.0,56,-99.99,,,-99.99,,2013-04-21 12:42:00,
2013-04-21 12:52:00,40.0,25.0,30.45,North,5,5.0,-999.0,54,-99.99,,,-99.99,,2013-04-21 12:52:00,
2013-04-21 13:01:00,40.0,25.0,30.45,NE,49,5.0,-999.0,54,-99.99,,,-99.99,,2013-04-21 13:01:00,
2013-04-21 13:12:00,40.0,25.0,30.45,NE,49,5.0,-999.0,54,-99.99,,,-99.99,,2013-04-21 13:12:00,
2013-04-21 13:22:00,40.0,24.0,30.45,WNW,296,4.0,-999.0,53,-99.99,,,-99.99,,2013-04-21 13:22:00,
2013-04-21 13:32:00,41.0,25.0,30.45,North,5,3.0,-999.0,53,-99.99,,,-99.99,,2013-04-21 13:32:00,
2013-04-21 13:42:00,41.0,25.0,30.45,North,5,3.0,-999.0,53,-99.99,,,-99.99,,2013-04-21 13:42:00,
2013-04-21 13:52:00,41.0,25.0,30.46,NE,56,4.0,-999.0,52,-99.99,,,-99.99,,2013-04-21 13:52:00,
2013-04-21 14:02:00,42.0,26.0,30.46,NE,44,5.0,-999.0,52,-99.99,,,-99.99,,2013-04-21 14:02:00,
2013-04-21 14:11:00,42.0,26.0,30.46,NE,44,5.0,-999.0,52,-99.99,,,-99.99,,2013-04-21 14:11:00,
2013-04-21 14:21:00,42.0,25.0,30.47,NE,36,5.0,-999.0,51,-99.99,,,-99.99,,2013-04-21 14:21:00,
2013-04-21 14:32:00,43.0,26.0,30.48,NE,35,4.0,-999.0,51,-99.99,,,-99.99,,2013-04-21 14:32:00,
2013-04-21 14:42:00,43.0,26.0,30.48,NE,35,4.0,-999.0,51,-99.99,,,-99.99,,2013-04-21 14:42:00,
2013-04-21 14:52:00,43.0,26.0,30.48,North,351,2.0,-999.0,51,-99.99,,,-99.99,,2013-04-21 14:52:00,
2013-04-21 15:02:00,43.0,26.0,30.48,North,5,3.0,-999.0,51,-99.99,,,-99.99,,2013-04-21 15:02:00,
2013-04-21 15:11:00,43.0,26.0,30.48,North,5,3.0,-999.0,51,-99.99,,,-99.99,,2013-04-21 15:11:00,
2013-04-21 15:22:00,44.0,26.0,30.48,ENE,60,4.0,-999.0,49,-99.99,,,-99.99,,2013-04-21 15:22:00,
2013-04-21 15:33:00,45.0,27.0,30.48,WNW,300,2.0,-999.0,50,-99.99,,,-99.99,,2013-04-21 15:33:00,
2013-04-21 15:43:00,45.0,27.0,30.48,WNW,300,2.0,-999.0,50,-99.99,,,-99.99,,2013-04-21 15:43:00,
2013-04-21 15:53:00,45.0,27.0,30.48,NW,323,2.0,-999.0,49,-99.99,,,-99.99,,2013-04-21 15:53:00,
2013-04-21 16:03:00,45.0,27.0,30.48,NW,323,4.0,-999.0,48,-99.99,,,-99.99,,2013-04-21 16:03:00,
2013-04-21 16:13:00,45.0,27.0,30.48,NW,323,4.0,-999.0,48,-99.99,,,-99.99,,2013-04-21 16:13:00,
2013-04-21 16:23:00,47.0,30.0,30.48,ESE,102,2.0,-999.0,51,-99.99,,,-99.99,,2013-04-21 16:23:00,
2013-04-21 16:33:00,47.0,28.0,30.47,ENE,57,3.0,-999.0,47,-99.99,,,-99.99,,2013-04-21 16:33:00,
2013-04-21 16:42:00,47.0,28.0,30.47,ENE,57,3.0,-999.0,47,-99.99,,,-99.99,,2013-04-21 16:42:00,
2013-04-21 16:52:00,47.0,27.0,30.47,NNW,332,3.0,-999.0,46,-99.99,,,-99.99,,2013-04-21 16:52:00,
2013-04-21 17:02:00,47.0,27.0,30.47,West,263,3.0,-999.0,46,-99.99,,,-99.99,,2013-04-21 17:02:00,
2013-04-21 17:12:00,48.0,28.0,30.46,North,350,2.0,-999.0,45,-99.99,,,-99.99,,2013-04-21 17:12:00,
2013-04-21 17:23:00,48.0,28.0,30.46,North,350,2.0,-999.0,45,-99.99,,,-99.99,,2013-04-21 17:23:00,
2013-04-21 17:32:00,49.0,28.0,30.46,North,355,4.0,-999.0,44,-99.99,,,-99.99,,2013-04-21 17:32:00,
2013-04-21 17:42:00,49.0,28.0,30.46,North,355,4.0,-999.0,44,-99.99,,,-99.99,,2013-04-21 17:42:00,
2013-04-21 17:52:00,49.0,29.0,30.46,WNW,284,1.0,-999.0,46,-99.99,,,-99.99,,2013-04-21 17:52:00,
2013-04-21 18:02:00,51.0,30.0,30.45,North,11,2.0,-999.0,44,-99.99,,,-99.99,,2013-04-21 18:02:00,
2013-04-21 18:11:00,51.0,30.0,30.45,North,11,2.0,-999.0,44,-99.99,,,-99.99,,2013-04-21 18:11:00,
2013-04-21 18:22:00,51.0,30.0,30.45,North,360,1.0,-999.0,44,-99.99,,,-99.99,,2013-04-21 18:22:00,
2013-04-21 18:33:00,51.0,30.0,30.45,WNW,296,3.0,-999.0,44,-99.99,,,-99.99,,2013-04-21 18:33:00,
2013-04-21 18:42:00,51.0,30.0,30.45,WNW,296,3.0,-999.0,44,-99.99,,,-99.99,,2013-04-21 18:42:00,
2013-04-21 18:52:00,52.0,30.0,30.45,SE,125,2.0,-999.0,42,-99.99,,,-99.99,,2013-04-21 18:52:00,
2013-04-21 19:02:00,52.0,28.0,30.45,ENE,70,2.0,-999.0,40,-99.99,,,-99.99,,2013-04-21 19:02:00,
2013-04-21 19:12:00,52.0,28.0,30.45,ENE,70,2.0,-999.0,40,-99.99,,,-99.99,,2013-04-21 19:12:00,
2013-04-21 19:22:00,52.0,29.0,30.43,WNW,285,2.0,-999.0,41,-99.99,,,-99.99,,2013-04-21 19:22:00,
2013-04-21 19:32:00,53.0,31.0,30.43,North,5,2.0,-999.0,42,-99.99,,,-99.99,,2013-04-21 19:32:00,
2013-04-21 19:42:00,53.0,31.0,30.43,North,5,2.0,-999.0,42,-99.99,,,-99.99,,2013-04-21 19:42:00,
2013-04-21 19:52:00,54.0,30.0,30.43,ESE,116,1.0,-999.0,40,-99.99,,,-99.99,,2013-04-21 19:52:00,
2013-04-21 20:02:00,53.0,31.0,30.43,SSE,150,2.0,-999.0,42,-99.99,,,-99.99,,2013-04-21 20:02:00,
2013-04-21 20:11:00,53.0,31.0,30.43,SSE,150,2.0,-999.0,42,-99.99,,,-99.99,,2013-04-21 20:11:00,
2013-04-21 20:22:00,54.0,30.0,30.42,NE,55,1.0,-999.0,39,-99.99,,,-99.99,,2013-04-21 20:22:00,
2013-04-21 20:32:00,54.0,31.0,30.42,WNW,285,2.0,-999.0,41,-99.99,,,-99.99,,2013-04-21 20:32:00,
2013-04-21 20:42:00,54.0,31.0,30.42,WNW,285,2.0,-999.0,41,-99.99,,,-99.99,,2013-04-21 20:42:00,
2013-04-21 20:52:00,54.0,29.0,30.42,WNW,285,1.0,-999.0,38,-99.99,,,-99.99,,2013-04-21 20:52:00,
2013-04-21 21:02:00,54.0,28.0,30.42,WNW,296,1.0,-999.0,37,-99.99,,,-99.99,,2013-04-21 21:02:00,
2013-04-21 21:12:00,55.0,29.0,30.42,East,92,1.0,-999.0,37,-99.99,,,-99.99,,2013-04-21 21:12:00,
2013-04-21 21:22:00,55.0,29.0,30.42,East,92,1.0,-999.0,37,-99.99,,,-99.99,,2013-04-21 21:22:00,
2013-04-21 21:33:00,53.0,29.0,30.42,ESE,115,3.0,-999.0,39,-99.99,,,-99.99,,2013-04-21 21:33:00,
2013-04-21 21:43:00,53.0,29.0,30.42,ESE,115,3.0,-999.0,39,-99.99,,,-99.99,,2013-04-21 21:43:00,
2013-04-21 21:53:00,53.0,28.0,30.42,SE,132,1.0,-999.0,38,-99.99,,,-99.99,,2013-04-21 21:53:00,
2013-04-21 22:03:00,54.0,30.0,30.42,SSE,148,1.0,-999.0,39,-99.99,,,-99.99,,2013-04-21 22:03:00,
2013-04-21 22:12:00,54.0,30.0,30.42,SSE,148,1.0,-999.0,39,-99.99,,,-99.99,,2013-04-21 22:12:00,
2013-04-21 22:22:00,54.0,29.0,30.42,ESE,113,1.0,-999.0,38,-99.99,,,-99.99,,2013-04-21 22:22:00,
2013-04-21 22:33:00,54.0,29.0,30.43,ESE,111,1.0,-999.0,38,-99.99,,,-99.99,,2013-04-21 22:33:00,
2013-04-21 22:43:00,54.0,29.0,30.43,ESE,111,1.0,-999.0,38,-99.99,,,-99.99,,2013-04-21 22:43:00,
2013-04-21 22:52:00,53.0,29.0,30.43,ESE,122,1.0,-999.0,40,-99.99,,,-99.99,,2013-04-21 22:52:00,
2013-04-21 23:02:00,53.0,29.0,30.43,ESE,117,1.0,-999.0,40,-99.99,,,-99.99,,2013-04-21 23:02:00,
2013-04-21 23:12:00,53.0,29.0,30.43,ESE,117,1.0,-999.0,40,-99.99,,,-99.99,,2013-04-21 23:12:00,
2013-04-21 23:22:00,53.0,29.0,30.43,ESE,123,0.0,-999.0,39,-99.99,,,-99.99,,2013-04-21 23:22:00,
2013-04-21 23:32:00,52.0,29.0,30.44,ESE,123,0.0,-999.0,41,-99.99,,,-99.99,,2013-04-21 23:32:00,
2013-04-21 23:42:00,52.0,29.0,30.44,ESE,123,0.0,-999.0,41,-99.99,,,-99.99,,2013-04-21 23:42:00,
2013-04-21 23:52:00,52.0,30.0,30.44,ESE,123,0.0,-999.0,42,-99.99,,,-99.99,,2013-04-21 23:52:00,